createdAt,value
2023-02-11T00:02:10.454Z,18.38
2023-02-11T00:04:37.683Z,18.25
2023-02-11T00:07:04.870Z,19.87
2023-02-11T00:09:33.381Z,18.20
2023-02-11T00:12:00.564Z,18.55
2023-02-11T00:14:27.802Z,18.70
2023-02-11T00:16:55.081Z,15.45
2023-02-11T00:19:22.303Z,17.93
2023-02-11T00:21:49.525Z,18.15
2023-02-11T00:24:16.773Z,17.45
2023-02-11T00:26:45.302Z,14.93
2023-02-11T00:29:12.513Z,19.15
2023-02-11T00:31:41.137Z,18.87
2023-02-11T00:34:08.540Z,16.50
2023-02-11T00:36:35.773Z,16.60
2023-02-11T00:39:03.119Z,17.52
2023-02-11T00:41:30.722Z,15.25
2023-02-11T00:44:01.510Z,17.00
2023-02-11T00:46:29.400Z,18.20
2023-02-11T00:48:57.822Z,18.38
2023-02-11T00:51:25.787Z,17.58
2023-02-11T00:53:53.490Z,15.68
2023-02-11T00:56:21.127Z,17.23
2023-02-11T00:58:48.350Z,16.13
2023-02-11T01:01:18.427Z,16.23
2023-02-11T01:03:46.132Z,18.05
2023-02-11T01:06:13.442Z,15.25
2023-02-11T01:08:40.758Z,16.67
2023-02-11T01:11:13.735Z,15.88
2023-02-11T01:13:41.478Z,16.33
2023-02-11T01:16:10.700Z,17.33
2023-02-11T01:18:40.097Z,17.17
2023-02-11T01:21:07.678Z,16.23
2023-02-11T01:23:34.969Z,16.13
2023-02-11T01:26:02.487Z,17.15
2023-02-11T01:28:30.800Z,16.08
2023-02-11T01:31:01.657Z,16.55
2023-02-11T01:33:29.432Z,16.87
2023-02-11T01:36:00.585Z,16.13
2023-02-11T01:38:28.747Z,15.68
2023-02-11T01:40:58.090Z,14.02
2023-02-11T01:43:27.819Z,14.25
2023-02-11T01:46:05.189Z,16.03
2023-02-11T01:48:35.800Z,13.18
2023-02-11T01:51:08.978Z,15.50
2023-02-11T01:53:57.230Z,15.95
2023-02-11T01:56:45.258Z,13.75
2023-02-11T01:59:17.269Z,16.47
2023-02-11T02:01:50.261Z,12.80
2023-02-11T02:04:19.600Z,17.00
2023-02-11T02:06:55.317Z,16.40
2023-02-11T02:09:26.396Z,15.98
2023-02-11T02:11:53.752Z,16.20
2023-02-11T02:14:21.410Z,16.42
2023-02-11T02:16:48.937Z,17.48
2023-02-11T02:19:56.618Z,16.65
2023-02-11T02:22:52.173Z,15.90
2023-02-11T02:25:42.421Z,15.17
2023-02-11T02:28:31.997Z,14.02
2023-02-11T02:31:34.159Z,17.02
2023-02-11T02:34:06.560Z,15.88
2023-02-11T02:36:39.409Z,16.10
2023-02-11T02:39:11.802Z,17.20
2023-02-11T02:41:39.990Z,15.23
2023-02-11T02:44:08.536Z,16.13
2023-02-11T02:46:36.335Z,15.82
2023-02-11T02:49:10.971Z,18.60
2023-02-11T02:51:55.269Z,14.97
2023-02-11T02:54:53.077Z,16.65
2023-02-11T02:57:30.953Z,17.35
2023-02-11T03:00:14.528Z,16.50
2023-02-11T03:02:51.900Z,16.50
2023-02-11T03:05:30.673Z,17.30
2023-02-11T03:08:03.930Z,17.85
2023-02-11T03:10:34.432Z,16.90
2023-02-11T03:13:03.591Z,14.63
2023-02-11T03:15:36.860Z,17.95
2023-02-11T03:18:07.177Z,17.87
2023-02-11T03:20:37.444Z,17.60
2023-02-11T03:23:10.672Z,17.65
2023-02-11T03:25:43.480Z,17.85
2023-02-11T03:28:17.966Z,18.33
2023-02-11T03:30:49.312Z,18.43
2023-02-11T03:33:24.781Z,17.08
2023-02-11T03:35:56.460Z,18.95
2023-02-11T03:38:29.535Z,19.02
2023-02-11T03:40:59.671Z,16.60
2023-02-11T03:43:31.858Z,19.90
2023-02-11T03:46:00.168Z,18.55
2023-02-11T03:48:31.553Z,18.95
2023-02-11T03:51:02.732Z,19.42
2023-02-11T03:53:29.979Z,20.02
2023-02-11T03:55:59.989Z,15.73
2023-02-11T03:58:27.439Z,18.38
2023-02-11T04:00:54.719Z,19.17
2023-02-11T04:03:22.078Z,19.08
2023-02-11T04:05:49.637Z,19.73
2023-02-11T04:08:18.342Z,19.53
2023-02-11T04:10:45.542Z,19.20
2023-02-11T04:13:12.740Z,20.55
2023-02-11T04:15:39.964Z,17.65
2023-02-11T04:18:07.137Z,20.08
2023-02-11T04:20:34.323Z,19.07
2023-02-11T04:23:01.544Z,19.33
2023-02-11T04:25:30.087Z,20.48
2023-02-11T04:27:57.403Z,20.27
2023-02-11T04:30:24.676Z,14.80
2023-02-11T04:32:51.887Z,20.37
2023-02-11T04:35:19.249Z,18.98
2023-02-11T04:37:46.457Z,21.48
2023-02-11T04:40:13.724Z,20.98
2023-02-11T04:42:42.275Z,17.95
2023-02-11T04:45:10.019Z,20.70
2023-02-11T04:47:37.917Z,19.23
2023-02-11T04:50:05.627Z,19.30
2023-02-11T04:52:33.182Z,22.17
2023-02-11T04:55:00.390Z,20.17
2023-02-11T04:57:27.713Z,21.07
2023-02-11T04:59:56.295Z,17.65
2023-02-11T05:02:23.481Z,16.15
2023-02-11T05:04:50.694Z,18.85
2023-02-11T05:07:17.894Z,22.38
2023-02-11T05:09:45.089Z,21.50
2023-02-11T05:12:12.368Z,22.40
2023-02-11T05:14:39.685Z,21.00
2023-02-11T05:17:08.238Z,21.15
2023-02-11T05:19:35.439Z,21.33
2023-02-11T05:22:03.750Z,21.70
2023-02-11T05:24:31.465Z,20.42
2023-02-11T05:26:58.746Z,19.75
2023-02-11T05:29:26.052Z,23.42
2023-02-11T05:31:53.274Z,21.20
2023-02-11T05:34:21.801Z,20.37
2023-02-11T05:36:48.989Z,21.13
2023-02-11T05:39:16.207Z,23.10
2023-02-11T05:41:43.423Z,23.60
2023-02-11T05:44:10.623Z,20.10
2023-02-11T05:46:37.889Z,22.30
2023-02-11T05:49:05.869Z,21.20
2023-02-11T05:51:34.393Z,22.58
2023-02-11T05:54:01.742Z,23.60
2023-02-11T05:56:28.953Z,20.77
2023-02-11T05:58:56.167Z,23.70
2023-02-11T06:01:23.377Z,14.15
2023-02-11T06:03:51.337Z,20.92
2023-02-11T06:06:18.608Z,25.35
2023-02-11T06:08:47.246Z,17.67
2023-02-11T06:11:15.873Z,24.73
2023-02-11T06:13:43.228Z,25.23
2023-02-11T06:16:10.593Z,19.77
2023-02-11T06:18:37.836Z,24.85
2023-02-11T06:21:07.244Z,24.45
2023-02-11T06:23:34.440Z,22.63
2023-02-11T06:26:04.310Z,20.73
2023-02-11T06:28:31.954Z,25.40
2023-02-11T06:31:04.304Z,24.38
2023-02-11T06:33:31.641Z,25.35
2023-02-11T06:35:58.845Z,25.23
2023-02-11T06:38:26.073Z,24.75
2023-02-11T06:40:53.265Z,21.20
2023-02-11T06:43:21.777Z,22.88
2023-02-11T06:45:53.324Z,24.67
2023-02-11T06:48:20.795Z,21.50
2023-02-11T06:50:48.073Z,23.48
2023-02-11T06:53:15.292Z,17.08
2023-02-11T06:55:42.544Z,19.10
2023-02-11T06:58:09.745Z,25.50
2023-02-11T07:00:38.338Z,25.67
2023-02-11T07:03:05.665Z,25.20
2023-02-11T07:05:34.176Z,22.00
2023-02-11T07:08:01.372Z,18.25
2023-02-11T07:10:28.655Z,23.77
2023-02-11T07:12:58.669Z,22.73
2023-02-11T07:15:26.025Z,16.98
2023-02-11T07:17:54.957Z,25.20
2023-02-11T07:20:27.349Z,24.90
2023-02-11T07:22:54.976Z,20.60
2023-02-11T07:25:22.229Z,26.00
2023-02-11T07:27:50.104Z,24.13
2023-02-11T07:30:17.448Z,26.90
2023-02-11T07:32:44.634Z,21.92
2023-02-11T07:35:13.256Z,25.13
2023-02-11T07:37:41.557Z,20.73
2023-02-11T07:40:09.648Z,24.15
2023-02-11T07:42:37.092Z,24.88
2023-02-11T07:45:04.798Z,25.10
2023-02-11T07:47:32.081Z,20.77
2023-02-11T07:49:59.288Z,23.77
2023-02-11T07:52:29.487Z,24.95
2023-02-11T07:54:56.764Z,23.13
2023-02-11T07:57:24.036Z,22.80
2023-02-11T07:59:51.347Z,21.42
2023-02-11T08:02:18.687Z,21.90
2023-02-11T08:04:46.051Z,24.98
2023-02-11T08:07:15.347Z,22.95
2023-02-11T08:09:43.998Z,18.77
2023-02-11T08:12:11.350Z,25.02
2023-02-11T08:14:38.819Z,20.57
2023-02-11T08:17:06.032Z,23.45
2023-02-11T08:19:35.166Z,23.98
2023-02-11T08:22:02.582Z,22.25
2023-02-11T08:24:29.805Z,25.55
2023-02-11T08:26:58.367Z,23.03
2023-02-11T08:29:25.677Z,24.52
2023-02-11T08:31:53.040Z,24.40
2023-02-11T08:34:20.337Z,23.10
2023-02-11T08:36:48.601Z,18.17
2023-02-11T08:39:19.940Z,24.93
2023-02-11T08:41:48.964Z,20.90
2023-02-11T08:44:17.878Z,20.60
2023-02-11T08:46:45.341Z,22.23
2023-02-11T08:49:12.580Z,16.73
2023-02-11T08:51:40.133Z,22.90
2023-02-11T08:54:09.530Z,23.00
2023-02-11T08:56:37.189Z,20.83
2023-02-11T08:59:04.853Z,24.20
2023-02-11T09:01:33.803Z,16.08
2023-02-11T09:04:01.256Z,22.67
2023-02-11T09:06:29.226Z,20.00
2023-02-11T09:08:57.599Z,22.58
2023-02-11T09:11:28.245Z,23.45
2023-02-11T09:13:55.550Z,23.50
2023-02-11T09:16:24.883Z,19.07
2023-02-11T09:18:54.164Z,23.58
2023-02-11T09:21:21.431Z,23.35
2023-02-11T09:23:48.935Z,20.65
2023-02-11T09:26:18.036Z,22.88
2023-02-11T09:28:45.646Z,18.00
2023-02-11T09:31:15.100Z,22.90
2023-02-11T09:33:47.806Z,15.18
2023-02-11T09:36:18.967Z,18.83
2023-02-11T09:38:48.329Z,22.48
2023-02-11T09:41:33.484Z,14.77
2023-02-11T09:44:04.782Z,20.45
2023-02-11T09:46:35.665Z,21.33
2023-02-11T09:49:04.942Z,21.73
2023-02-11T09:51:39.603Z,20.45
2023-02-11T09:54:13.435Z,15.13
2023-02-11T09:56:40.649Z,19.92
2023-02-11T09:59:13.768Z,21.75
2023-02-11T10:01:47.165Z,22.73
2023-02-11T10:04:25.017Z,20.90
2023-02-11T10:06:56.188Z,14.43
2023-02-11T10:09:44.260Z,21.45
2023-02-11T10:12:32.234Z,21.05
2023-02-11T10:15:14.845Z,21.23
2023-02-11T10:17:59.616Z,21.40
2023-02-11T10:20:33.567Z,20.97
2023-02-11T10:23:09.775Z,20.02
2023-02-11T10:25:39.297Z,20.38
2023-02-11T10:28:13.295Z,17.65
2023-02-11T10:30:45.802Z,21.15
2023-02-11T10:33:20.239Z,21.00
2023-02-11T10:35:47.624Z,18.42
2023-02-11T10:38:16.178Z,20.08
2023-02-11T10:40:43.427Z,20.48
2023-02-11T10:43:13.341Z,20.95
2023-02-11T10:45:44.128Z,19.70
2023-02-11T10:48:38.209Z,19.10
2023-02-11T10:51:18.224Z,20.83
2023-02-11T10:53:48.088Z,21.80
2023-02-11T10:56:22.655Z,19.85
2023-02-11T10:58:57.529Z,19.23
2023-02-11T11:01:41.996Z,18.80
2023-02-11T11:04:33.840Z,15.65
2023-02-11T11:07:13.441Z,18.38
2023-02-11T11:09:48.747Z,20.55
2023-02-11T11:12:30.084Z,18.13
2023-02-11T11:14:58.857Z,19.17
2023-02-11T11:17:29.101Z,19.90
2023-02-11T11:20:19.268Z,15.75
2023-02-11T11:22:48.141Z,20.15
2023-02-11T11:25:26.730Z,17.23
2023-02-11T11:27:56.813Z,15.32
2023-02-11T11:30:28.275Z,17.27
2023-02-11T11:32:56.523Z,15.57
2023-02-11T11:35:27.683Z,12.65
2023-02-11T11:38:01.385Z,12.70
2023-02-11T11:40:31.957Z,16.15
2023-02-11T11:43:05.916Z,16.30
2023-02-11T11:45:33.227Z,16.98
2023-02-11T11:48:06.231Z,16.35
2023-02-11T11:50:36.826Z,15.20
2023-02-11T11:53:12.189Z,15.93
2023-02-11T11:55:44.742Z,16.58
2023-02-11T11:58:15.895Z,8.13
2023-02-11T12:00:53.486Z,15.77
2023-02-11T12:03:51.276Z,14.93
2023-02-11T12:06:30.769Z,9.85
2023-02-11T12:09:07.798Z,10.77
2023-02-11T12:11:50.770Z,14.95
2023-02-11T12:14:27.078Z,15.02
2023-02-11T12:17:00.555Z,13.60
2023-02-11T12:19:56.195Z,15.15
2023-02-11T12:22:37.077Z,15.52
2023-02-11T12:25:20.282Z,12.82
2023-02-11T12:27:57.165Z,14.23
2023-02-11T12:30:47.198Z,12.80
2023-02-11T12:33:27.870Z,12.88
2023-02-11T12:36:00.131Z,12.73
2023-02-11T12:38:46.048Z,12.18
2023-02-11T12:41:46.629Z,12.95
2023-02-11T12:44:21.514Z,12.67
2023-02-11T12:46:54.532Z,13.45
2023-02-11T12:49:42.557Z,13.20
2023-02-11T12:52:23.688Z,9.38
2023-02-11T12:54:58.293Z,12.68
2023-02-11T12:57:28.055Z,12.50
2023-02-11T13:00:02.571Z,11.77
2023-02-11T13:02:37.051Z,12.68
2023-02-11T13:05:12.628Z,13.20
2023-02-11T13:07:45.019Z,13.93
2023-02-11T13:10:26.089Z,13.07
2023-02-11T13:13:14.573Z,9.00
2023-02-11T13:15:45.801Z,12.68
2023-02-11T13:18:22.245Z,12.80
2023-02-11T13:20:55.610Z,13.30
2023-02-11T13:23:26.857Z,12.80
2023-02-11T13:25:59.482Z,11.13
2023-02-11T13:28:41.259Z,11.60
2023-02-11T13:31:12.706Z,12.07
2023-02-11T13:33:43.177Z,11.48
2023-02-11T13:36:14.264Z,12.60
2023-02-11T13:38:50.837Z,11.82
2023-02-11T13:41:26.077Z,12.48
2023-02-11T13:44:02.861Z,12.32
2023-02-11T13:46:54.177Z,12.40
2023-02-11T13:49:24.468Z,11.43
2023-02-11T13:51:53.020Z,12.57
2023-02-11T13:54:25.058Z,12.25
2023-02-11T13:57:26.748Z,12.23
2023-02-11T13:59:55.486Z,11.48
2023-02-11T14:02:46.584Z,11.20
2023-02-11T14:05:45.726Z,12.00
2023-02-11T14:08:40.369Z,12.70
2023-02-11T14:11:45.372Z,11.10
2023-02-11T14:14:19.254Z,10.65
2023-02-11T14:17:18.094Z,11.77
2023-02-11T14:19:47.821Z,10.65
2023-02-11T14:22:17.624Z,10.30
2023-02-11T14:24:51.915Z,10.77
2023-02-11T14:27:27.236Z,10.15
2023-02-11T14:30:09.102Z,10.33
2023-02-11T14:32:49.972Z,10.68
2023-02-11T14:35:27.450Z,10.93
2023-02-11T14:38:01.374Z,10.63
2023-02-11T14:40:32.997Z,10.57
2023-02-11T14:43:12.053Z,10.23
2023-02-11T14:45:40.036Z,8.35
2023-02-11T14:48:14.882Z,9.80
2023-02-11T14:50:46.093Z,9.90
2023-02-11T14:53:16.880Z,10.70
2023-02-11T14:55:47.076Z,10.67
2023-02-11T14:58:17.021Z,9.82
2023-02-11T15:00:50.351Z,9.52
2023-02-11T15:03:35.586Z,9.90
2023-02-11T15:06:07.225Z,9.68
2023-02-11T15:08:37.461Z,8.40
2023-02-11T15:11:12.056Z,8.82
2023-02-11T15:13:47.918Z,8.50
2023-02-11T15:16:19.402Z,7.95
2023-02-11T15:18:51.619Z,8.48
2023-02-11T15:21:25.919Z,8.70
2023-02-11T15:23:58.505Z,9.73
2023-02-11T15:26:25.720Z,9.80
2023-02-11T15:28:53.298Z,10.32
2023-02-11T15:31:23.323Z,10.75
2023-02-11T15:33:50.916Z,12.23
2023-02-11T15:36:21.209Z,10.43
2023-02-11T15:39:17.362Z,10.20
2023-02-11T15:41:44.767Z,11.32
2023-02-11T15:44:27.394Z,11.88
2023-02-11T15:46:54.598Z,16.57
2023-02-11T15:49:23.177Z,13.68
2023-02-11T15:51:50.910Z,12.63
2023-02-11T15:54:22.256Z,12.73
2023-02-11T15:56:52.182Z,13.07
2023-02-11T15:59:25.765Z,12.00
2023-02-11T16:01:54.506Z,13.85
2023-02-11T16:04:24.453Z,13.95
2023-02-11T16:06:53.124Z,12.93
2023-02-11T16:09:33.945Z,11.57
2023-02-11T16:12:03.533Z,10.93
2023-02-11T16:14:34.551Z,9.60
2023-02-11T16:17:05.439Z,10.52
2023-02-11T16:19:34.365Z,10.60
2023-02-11T16:22:08.316Z,8.35
2023-02-11T16:24:38.976Z,8.17
2023-02-11T16:27:18.028Z,8.57
2023-02-11T16:29:48.051Z,7.97
2023-02-11T16:32:18.331Z,7.15
2023-02-11T16:34:45.654Z,8.45
2023-02-11T16:37:13.134Z,7.60
2023-02-11T16:39:41.920Z,7.32
2023-02-11T16:42:10.916Z,6.97
2023-02-11T16:44:38.127Z,7.85
2023-02-11T16:47:10.716Z,6.60
2023-02-11T16:49:41.350Z,7.20
2023-02-11T16:52:13.461Z,7.05
2023-02-11T16:54:42.222Z,6.88
2023-02-11T16:57:13.366Z,6.80
2023-02-11T16:59:40.548Z,6.88
2023-02-11T17:02:12.712Z,6.37
2023-02-11T17:04:40.883Z,6.10
2023-02-11T17:07:08.098Z,7.63
2023-02-11T17:09:35.324Z,9.65
2023-02-11T17:12:04.114Z,5.93
2023-02-11T17:14:31.497Z,7.57
2023-02-11T17:16:58.669Z,7.13
2023-02-11T17:19:25.889Z,6.70
2023-02-11T17:21:53.696Z,5.38
2023-02-11T17:24:22.251Z,7.03
2023-02-11T17:26:50.273Z,6.40
2023-02-11T17:29:21.499Z,6.65
2023-02-11T17:31:49.283Z,7.45
2023-02-11T17:34:17.322Z,9.15
2023-02-11T17:36:44.528Z,8.40
2023-02-11T17:39:12.113Z,8.63
2023-02-11T17:41:39.920Z,8.93
2023-02-11T17:44:07.763Z,7.28
2023-02-11T17:46:36.373Z,7.07
2023-02-11T17:49:04.352Z,7.13
2023-02-11T17:51:33.622Z,7.20
2023-02-11T17:54:02.612Z,6.75
2023-02-11T17:56:32.732Z,7.57
2023-02-11T17:59:02.263Z,7.95
2023-02-11T18:01:30.950Z,8.07
2023-02-11T18:04:00.023Z,7.07
2023-02-11T18:06:29.053Z,10.73
2023-02-11T18:08:58.031Z,9.85
2023-02-11T18:11:25.937Z,8.77
2023-02-11T18:13:54.572Z,7.38
2023-02-11T18:16:22.574Z,6.03
2023-02-11T18:18:50.461Z,7.30
2023-02-11T18:21:21.298Z,6.57
2023-02-11T18:23:49.624Z,6.43
2023-02-11T18:26:18.714Z,5.20
2023-02-11T18:28:46.287Z,6.20
2023-02-11T18:31:14.537Z,5.78
2023-02-11T18:33:43.247Z,5.80
2023-02-11T18:36:12.875Z,6.75
2023-02-11T18:38:44.063Z,6.20
2023-02-11T18:41:11.274Z,5.83
2023-02-11T18:43:39.954Z,6.40
2023-02-11T18:46:10.244Z,5.95
2023-02-11T18:48:37.627Z,6.03
2023-02-11T18:51:09.061Z,6.22
2023-02-11T18:53:36.745Z,5.70
2023-02-11T18:56:09.444Z,6.45
2023-02-11T18:58:37.957Z,5.93
2023-02-11T19:01:11.553Z,6.30
2023-02-11T19:03:38.900Z,6.90
2023-02-11T19:06:06.880Z,6.53
2023-02-11T19:08:34.115Z,7.22
2023-02-11T19:11:04.805Z,8.73
2023-02-11T19:13:33.310Z,10.02
2023-02-11T19:16:00.560Z,6.50
2023-02-11T19:18:27.732Z,6.93
2023-02-11T19:20:54.966Z,7.15
2023-02-11T19:23:22.173Z,10.57
2023-02-11T19:25:49.582Z,7.32
2023-02-11T19:28:16.996Z,11.38
2023-02-11T19:30:45.648Z,9.93
2023-02-11T19:33:12.885Z,8.93
2023-02-11T19:35:40.329Z,7.60
2023-02-11T19:38:07.604Z,7.85
2023-02-11T19:40:34.842Z,7.43
2023-02-11T19:43:02.053Z,6.93
2023-02-11T19:45:29.260Z,7.28
2023-02-11T19:47:57.991Z,7.82
2023-02-11T19:50:25.404Z,7.32
2023-02-11T19:52:52.587Z,7.00
2023-02-11T19:55:19.916Z,7.40
2023-02-11T19:57:47.092Z,6.68
2023-02-11T20:00:15.195Z,6.60
2023-02-11T20:02:42.412Z,7.15
2023-02-11T20:05:11.013Z,7.78
2023-02-11T20:07:38.250Z,7.60
2023-02-11T20:10:07.102Z,7.55
2023-02-11T20:12:34.280Z,8.18
2023-02-11T20:15:01.459Z,7.20
2023-02-11T20:17:28.659Z,7.45
2023-02-11T20:19:55.866Z,6.60
2023-02-11T20:22:24.405Z,6.88
2023-02-11T20:24:51.642Z,7.55
2023-02-11T20:27:20.141Z,6.97
2023-02-11T20:29:47.444Z,6.18
2023-02-11T20:32:14.702Z,7.23
2023-02-11T20:34:42.096Z,7.50
2023-02-11T20:37:10.354Z,6.00
2023-02-11T20:39:40.895Z,6.15
2023-02-11T20:42:09.856Z,6.22
2023-02-11T20:44:37.097Z,7.17
2023-02-11T20:47:04.441Z,6.03
2023-02-11T20:49:31.700Z,5.25
2023-02-11T20:51:58.908Z,5.65
2023-02-11T20:54:26.175Z,5.57
2023-02-11T20:56:55.895Z,6.30
2023-02-11T20:59:23.141Z,6.00
2023-02-11T21:01:53.544Z,6.05
2023-02-11T21:04:22.725Z,4.90
2023-02-11T21:06:52.255Z,5.35
2023-02-11T21:09:21.287Z,5.77
2023-02-11T21:11:49.143Z,5.35
2023-02-11T21:14:19.010Z,6.30
2023-02-11T21:16:46.489Z,7.03
2023-02-11T21:19:14.019Z,5.70
2023-02-11T21:21:41.946Z,5.83
2023-02-11T21:24:10.246Z,5.72
2023-02-11T21:26:37.891Z,7.28
2023-02-11T21:29:07.192Z,6.35
2023-02-11T21:31:36.862Z,7.60
2023-02-11T21:34:04.480Z,6.73
2023-02-11T21:36:32.009Z,6.75
2023-02-11T21:39:00.109Z,5.70
2023-02-11T21:41:27.519Z,5.95
2023-02-11T21:43:54.915Z,6.05
2023-02-11T21:46:22.810Z,6.10
2023-02-11T21:48:52.145Z,5.07
2023-02-11T21:51:21.104Z,5.10
2023-02-11T21:53:52.309Z,6.22
2023-02-11T21:56:19.631Z,4.82
2023-02-11T21:58:47.415Z,4.73
2023-02-11T22:01:16.698Z,5.35
2023-02-11T22:03:44.898Z,5.70
2023-02-11T22:06:16.074Z,5.82
2023-02-11T22:08:43.887Z,5.30
2023-02-11T22:11:12.812Z,5.57
2023-02-11T22:13:41.039Z,4.43
2023-02-11T22:16:10.794Z,5.22
2023-02-11T22:18:38.141Z,5.93
2023-02-11T22:21:07.287Z,5.93
2023-02-11T22:23:36.957Z,5.03
2023-02-11T22:26:06.865Z,5.22
2023-02-11T22:28:35.406Z,5.05
2023-02-11T22:31:03.079Z,4.60
2023-02-11T22:33:30.416Z,5.90
2023-02-11T22:35:59.328Z,5.37
2023-02-11T22:38:27.466Z,5.13
2023-02-11T22:40:55.994Z,5.25
2023-02-11T22:43:23.485Z,5.47
2023-02-11T22:45:51.236Z,5.78
2023-02-11T22:48:20.734Z,5.33
2023-02-11T22:50:49.330Z,5.13
2023-02-11T22:53:16.618Z,5.20
2023-02-11T22:55:43.856Z,5.30
2023-02-11T22:58:12.366Z,5.53
2023-02-11T23:00:41.802Z,4.93
2023-02-11T23:03:10.579Z,5.55
2023-02-11T23:05:39.000Z,5.07
2023-02-11T23:08:06.560Z,6.43
2023-02-11T23:10:34.635Z,5.55
2023-02-11T23:13:01.967Z,6.00
2023-02-11T23:15:31.057Z,6.40
2023-02-11T23:17:58.538Z,6.75
2023-02-11T23:20:25.841Z,6.30
2023-02-11T23:22:53.084Z,6.20
2023-02-11T23:25:20.275Z,5.43
2023-02-11T23:27:47.526Z,5.40
2023-02-11T23:30:15.149Z,5.88
2023-02-11T23:32:43.655Z,6.45
2023-02-11T23:35:10.886Z,6.60
2023-02-11T23:37:38.063Z,6.10
2023-02-11T23:40:06.264Z,5.95
2023-02-11T23:42:33.448Z,5.72
2023-02-11T23:45:01.419Z,6.30
2023-02-11T23:47:28.958Z,6.13
2023-02-11T23:49:59.600Z,5.37
2023-02-11T23:52:27.181Z,6.35
2023-02-11T23:54:54.363Z,7.00
2023-02-11T23:57:21.561Z,5.97
2023-02-11T23:59:49.590Z,6.38
